sensor_id;sensor_type;location;lat;lon;timestamp;P1;durP1;ratioP1;P2;durP2;ratioP2
38465;SDS011;24244;51.950;5.902;2023-05-31T00:00:49;2.42;;;1.10;;
38465;SDS011;24244;51.950;5.902;2023-05-31T00:03:17;3.33;;;1.45;;
38465;SDS011;24244;51.950;5.902;2023-05-31T00:05:44;3.30;;;1.20;;
38465;SDS011;24244;51.950;5.902;2023-05-31T00:08:10;3.65;;;1.02;;
38465;SDS011;24244;51.950;5.902;2023-05-31T00:10:37;2.53;;;1.13;;
38465;SDS011;24244;51.950;5.902;2023-05-31T00:13:04;2.67;;;1.20;;
38465;SDS011;24244;51.950;5.902;2023-05-31T00:15:31;2.63;;;1.20;;
38465;SDS011;24244;51.950;5.902;2023-05-31T00:17:57;2.78;;;1.17;;
38465;SDS011;24244;51.950;5.902;2023-05-31T00:20:26;3.10;;;1.30;;
38465;SDS011;24244;51.950;5.902;2023-05-31T00:22:52;2.60;;;1.30;;
38465;SDS011;24244;51.950;5.902;2023-05-31T00:25:19;2.78;;;1.20;;
38465;SDS011;24244;51.950;5.902;2023-05-31T00:27:46;3.17;;;1.27;;
38465;SDS011;24244;51.950;5.902;2023-05-31T00:30:13;4.07;;;1.50;;
38465;SDS011;24244;51.950;5.902;2023-05-31T00:32:40;3.08;;;1.15;;
38465;SDS011;24244;51.950;5.902;2023-05-31T00:35:08;2.65;;;1.10;;
38465;SDS011;24244;51.950;5.902;2023-05-31T00:37:36;3.05;;;1.23;;
38465;SDS011;24244;51.950;5.902;2023-05-31T00:40:04;3.83;;;1.35;;
38465;SDS011;24244;51.950;5.902;2023-05-31T00:42:32;2.72;;;1.30;;
38465;SDS011;24244;51.950;5.902;2023-05-31T00:44:59;3.85;;;1.23;;
38465;SDS011;24244;51.950;5.902;2023-05-31T00:47:26;3.50;;;1.58;;
38465;SDS011;24244;51.950;5.902;2023-05-31T00:49:53;3.47;;;1.45;;
38465;SDS011;24244;51.950;5.902;2023-05-31T00:52:22;4.72;;;1.70;;
38465;SDS011;24244;51.950;5.902;2023-05-31T00:54:51;2.55;;;1.17;;
38465;SDS011;24244;51.950;5.902;2023-05-31T00:57:20;3.08;;;1.45;;
38465;SDS011;24244;51.950;5.902;2023-05-31T00:59:47;2.78;;;1.33;;
38465;SDS011;24244;51.950;5.902;2023-05-31T01:02:14;3.30;;;1.30;;
38465;SDS011;24244;51.950;5.902;2023-05-31T01:04:43;3.95;;;1.42;;
38465;SDS011;24244;51.950;5.902;2023-05-31T01:07:10;4.15;;;2.05;;
38465;SDS011;24244;51.950;5.902;2023-05-31T01:09:37;4.95;;;1.77;;
38465;SDS011;24244;51.950;5.902;2023-05-31T01:12:13;3.70;;;1.23;;
38465;SDS011;24244;51.950;5.902;2023-05-31T01:14:53;2.92;;;1.50;;
38465;SDS011;24244;51.950;5.902;2023-05-31T01:17:29;3.63;;;1.20;;
38465;SDS011;24244;51.950;5.902;2023-05-31T01:20:01;2.72;;;1.30;;
38465;SDS011;24244;51.950;5.902;2023-05-31T01:22:33;2.78;;;1.30;;
38465;SDS011;24244;51.950;5.902;2023-05-31T01:25:20;3.50;;;1.42;;
38465;SDS011;24244;51.950;5.902;2023-05-31T01:27:54;3.53;;;1.60;;
38465;SDS011;24244;51.950;5.902;2023-05-31T01:30:24;4.10;;;1.52;;
38465;SDS011;24244;51.950;5.902;2023-05-31T01:32:52;3.67;;;1.63;;
38465;SDS011;24244;51.950;5.902;2023-05-31T01:35:22;4.07;;;1.80;;
38465;SDS011;24244;51.950;5.902;2023-05-31T01:37:49;3.58;;;1.67;;
38465;SDS011;24244;51.950;5.902;2023-05-31T01:40:15;3.65;;;1.60;;
38465;SDS011;24244;51.950;5.902;2023-05-31T01:42:43;5.68;;;1.52;;
38465;SDS011;24244;51.950;5.902;2023-05-31T01:45:12;3.38;;;1.60;;
38465;SDS011;24244;51.950;5.902;2023-05-31T01:47:41;3.80;;;1.52;;
38465;SDS011;24244;51.950;5.902;2023-05-31T01:50:09;3.30;;;1.52;;
38465;SDS011;24244;51.950;5.902;2023-05-31T01:52:39;3.58;;;1.85;;
38465;SDS011;24244;51.950;5.902;2023-05-31T01:55:07;4.32;;;1.67;;
38465;SDS011;24244;51.950;5.902;2023-05-31T01:57:34;4.88;;;2.22;;
38465;SDS011;24244;51.950;5.902;2023-05-31T02:00:07;3.63;;;1.75;;
38465;SDS011;24244;51.950;5.902;2023-05-31T02:02:40;5.47;;;2.75;;
38465;SDS011;24244;51.950;5.902;2023-05-31T02:05:10;4.13;;;1.77;;
38465;SDS011;24244;51.950;5.902;2023-05-31T02:07:39;5.45;;;2.03;;
38465;SDS011;24244;51.950;5.902;2023-05-31T02:10:07;4.85;;;2.10;;
38465;SDS011;24244;51.950;5.902;2023-05-31T02:12:35;6.05;;;2.20;;
38465;SDS011;24244;51.950;5.902;2023-05-31T02:15:03;5.43;;;2.47;;
38465;SDS011;24244;51.950;5.902;2023-05-31T02:17:30;5.43;;;2.47;;
38465;SDS011;24244;51.950;5.902;2023-05-31T02:20:00;4.70;;;2.28;;
38465;SDS011;24244;51.950;5.902;2023-05-31T02:22:28;4.72;;;2.30;;
38465;SDS011;24244;51.950;5.902;2023-05-31T02:24:55;4.10;;;2.30;;
38465;SDS011;24244;51.950;5.902;2023-05-31T02:27:22;7.00;;;2.75;;
38465;SDS011;24244;51.950;5.902;2023-05-31T02:29:49;4.63;;;2.53;;
38465;SDS011;24244;51.950;5.902;2023-05-31T02:32:16;4.80;;;2.38;;
38465;SDS011;24244;51.950;5.902;2023-05-31T02:34:43;5.70;;;3.05;;
38465;SDS011;24244;51.950;5.902;2023-05-31T02:37:11;5.65;;;2.28;;
38465;SDS011;24244;51.950;5.902;2023-05-31T02:39:38;5.75;;;2.60;;
38465;SDS011;24244;51.950;5.902;2023-05-31T02:42:05;5.07;;;2.45;;
38465;SDS011;24244;51.950;5.902;2023-05-31T02:44:32;5.25;;;2.40;;
38465;SDS011;24244;51.950;5.902;2023-05-31T02:46:59;5.78;;;2.80;;
38465;SDS011;24244;51.950;5.902;2023-05-31T02:49:25;5.50;;;2.40;;
38465;SDS011;24244;51.950;5.902;2023-05-31T02:51:52;5.47;;;2.28;;
38465;SDS011;24244;51.950;5.902;2023-05-31T02:54:20;6.63;;;3.05;;
38465;SDS011;24244;51.950;5.902;2023-05-31T02:56:48;5.30;;;2.60;;
38465;SDS011;24244;51.950;5.902;2023-05-31T02:59:15;4.47;;;2.35;;
38465;SDS011;24244;51.950;5.902;2023-05-31T03:01:43;5.43;;;2.42;;
38465;SDS011;24244;51.950;5.902;2023-05-31T03:04:10;5.20;;;2.75;;
38465;SDS011;24244;51.950;5.902;2023-05-31T03:06:37;7.95;;;2.90;;
38465;SDS011;24244;51.950;5.902;2023-05-31T03:09:06;5.30;;;2.83;;
38465;SDS011;24244;51.950;5.902;2023-05-31T03:11:35;4.65;;;2.25;;
38465;SDS011;24244;51.950;5.902;2023-05-31T03:14:02;6.00;;;2.92;;
38465;SDS011;24244;51.950;5.902;2023-05-31T03:16:28;5.18;;;2.67;;
38465;SDS011;24244;51.950;5.902;2023-05-31T03:18:55;6.15;;;2.83;;
38465;SDS011;24244;51.950;5.902;2023-05-31T03:21:22;4.95;;;2.55;;
38465;SDS011;24244;51.950;5.902;2023-05-31T03:23:49;6.53;;;2.72;;
38465;SDS011;24244;51.950;5.902;2023-05-31T03:26:16;5.18;;;2.53;;
38465;SDS011;24244;51.950;5.902;2023-05-31T03:28:44;5.88;;;2.97;;
38465;SDS011;24244;51.950;5.902;2023-05-31T03:31:11;5.57;;;2.47;;
38465;SDS011;24244;51.950;5.902;2023-05-31T03:33:38;7.78;;;2.97;;
38465;SDS011;24244;51.950;5.902;2023-05-31T03:36:07;5.32;;;2.60;;
38465;SDS011;24244;51.950;5.902;2023-05-31T03:38:33;4.75;;;2.35;;
38465;SDS011;24244;51.950;5.902;2023-05-31T03:41:00;6.90;;;2.97;;
38465;SDS011;24244;51.950;5.902;2023-05-31T03:43:27;6.13;;;2.63;;
38465;SDS011;24244;51.950;5.902;2023-05-31T03:45:55;5.50;;;2.72;;
38465;SDS011;24244;51.950;5.902;2023-05-31T03:48:27;7.38;;;3.05;;
38465;SDS011;24244;51.950;5.902;2023-05-31T03:50:53;6.00;;;3.05;;
38465;SDS011;24244;51.950;5.902;2023-05-31T03:53:20;6.03;;;2.80;;
38465;SDS011;24244;51.950;5.902;2023-05-31T03:55:47;6.68;;;3.30;;
38465;SDS011;24244;51.950;5.902;2023-05-31T03:58:14;8.48;;;3.83;;
38465;SDS011;24244;51.950;5.902;2023-05-31T04:00:41;5.97;;;3.08;;
38465;SDS011;24244;51.950;5.902;2023-05-31T04:03:09;7.65;;;3.05;;
38465;SDS011;24244;51.950;5.902;2023-05-31T04:05:39;6.05;;;3.15;;
38465;SDS011;24244;51.950;5.902;2023-05-31T04:08:06;6.18;;;2.83;;
38465;SDS011;24244;51.950;5.902;2023-05-31T04:10:33;5.50;;;2.80;;
38465;SDS011;24244;51.950;5.902;2023-05-31T04:13:00;5.10;;;2.63;;
38465;SDS011;24244;51.950;5.902;2023-05-31T04:15:26;4.80;;;2.65;;
38465;SDS011;24244;51.950;5.902;2023-05-31T04:17:53;6.78;;;3.45;;
38465;SDS011;24244;51.950;5.902;2023-05-31T04:20:23;6.35;;;3.13;;
38465;SDS011;24244;51.950;5.902;2023-05-31T04:22:50;5.28;;;2.85;;
38465;SDS011;24244;51.950;5.902;2023-05-31T04:25:19;7.10;;;3.75;;
38465;SDS011;24244;51.950;5.902;2023-05-31T04:27:46;6.15;;;3.35;;
38465;SDS011;24244;51.950;5.902;2023-05-31T04:30:13;6.22;;;3.08;;
38465;SDS011;24244;51.950;5.902;2023-05-31T04:32:40;7.03;;;3.42;;
38465;SDS011;24244;51.950;5.902;2023-05-31T04:35:08;5.38;;;2.55;;
38465;SDS011;24244;51.950;5.902;2023-05-31T04:37:36;7.03;;;2.78;;
38465;SDS011;24244;51.950;5.902;2023-05-31T04:40:04;6.38;;;2.63;;
38465;SDS011;24244;51.950;5.902;2023-05-31T04:42:35;6.60;;;3.08;;
38465;SDS011;24244;51.950;5.902;2023-05-31T04:45:07;8.15;;;3.47;;
38465;SDS011;24244;51.950;5.902;2023-05-31T04:47:36;6.97;;;3.22;;
38465;SDS011;24244;51.950;5.902;2023-05-31T04:50:03;8.75;;;4.07;;
38465;SDS011;24244;51.950;5.902;2023-05-31T04:52:30;7.95;;;3.90;;
38465;SDS011;24244;51.950;5.902;2023-05-31T04:55:00;6.72;;;3.67;;
38465;SDS011;24244;51.950;5.902;2023-05-31T04:57:27;7.88;;;3.50;;
38465;SDS011;24244;51.950;5.902;2023-05-31T04:59:58;7.80;;;4.15;;
38465;SDS011;24244;51.950;5.902;2023-05-31T05:02:25;9.20;;;4.10;;
38465;SDS011;24244;51.950;5.902;2023-05-31T05:04:53;5.97;;;3.45;;
38465;SDS011;24244;51.950;5.902;2023-05-31T05:07:20;7.07;;;3.30;;
38465;SDS011;24244;51.950;5.902;2023-05-31T05:09:48;7.93;;;3.55;;
38465;SDS011;24244;51.950;5.902;2023-05-31T05:12:16;7.93;;;3.40;;
38465;SDS011;24244;51.950;5.902;2023-05-31T05:14:43;10.05;;;4.90;;
38465;SDS011;24244;51.950;5.902;2023-05-31T05:17:11;8.95;;;4.22;;
38465;SDS011;24244;51.950;5.902;2023-05-31T05:19:38;7.72;;;3.75;;
38465;SDS011;24244;51.950;5.902;2023-05-31T05:22:04;6.78;;;3.28;;
38465;SDS011;24244;51.950;5.902;2023-05-31T05:24:31;6.50;;;3.65;;
38465;SDS011;24244;51.950;5.902;2023-05-31T05:26:58;8.38;;;3.75;;
38465;SDS011;24244;51.950;5.902;2023-05-31T05:29:27;7.88;;;4.00;;
38465;SDS011;24244;51.950;5.902;2023-05-31T05:31:53;6.80;;;3.80;;
38465;SDS011;24244;51.950;5.902;2023-05-31T05:34:20;8.63;;;4.10;;
38465;SDS011;24244;51.950;5.902;2023-05-31T05:36:47;9.82;;;4.65;;
38465;SDS011;24244;51.950;5.902;2023-05-31T05:39:14;8.25;;;3.42;;
38465;SDS011;24244;51.950;5.902;2023-05-31T05:41:41;7.60;;;3.65;;
38465;SDS011;24244;51.950;5.902;2023-05-31T05:44:07;7.68;;;4.00;;
38465;SDS011;24244;51.950;5.902;2023-05-31T05:46:35;8.05;;;4.07;;
38465;SDS011;24244;51.950;5.902;2023-05-31T05:49:03;9.68;;;4.45;;
38465;SDS011;24244;51.950;5.902;2023-05-31T05:51:30;8.13;;;4.18;;
38465;SDS011;24244;51.950;5.902;2023-05-31T05:53:57;8.95;;;4.05;;
38465;SDS011;24244;51.950;5.902;2023-05-31T05:56:24;7.15;;;3.80;;
38465;SDS011;24244;51.950;5.902;2023-05-31T05:58:52;7.85;;;3.95;;
38465;SDS011;24244;51.950;5.902;2023-05-31T06:01:19;6.18;;;3.10;;
38465;SDS011;24244;51.950;5.902;2023-05-31T06:03:48;7.15;;;3.80;;
38465;SDS011;24244;51.950;5.902;2023-05-31T06:06:16;7.60;;;3.50;;
38465;SDS011;24244;51.950;5.902;2023-05-31T06:08:43;6.78;;;3.20;;
38465;SDS011;24244;51.950;5.902;2023-05-31T06:11:11;7.80;;;3.67;;
38465;SDS011;24244;51.950;5.902;2023-05-31T06:13:39;9.65;;;3.20;;
38465;SDS011;24244;51.950;5.902;2023-05-31T06:16:06;8.05;;;4.03;;
38465;SDS011;24244;51.950;5.902;2023-05-31T06:18:33;8.05;;;3.80;;
38465;SDS011;24244;51.950;5.902;2023-05-31T06:21:02;8.68;;;3.60;;
38465;SDS011;24244;51.950;5.902;2023-05-31T06:23:29;6.85;;;3.20;;
38465;SDS011;24244;51.950;5.902;2023-05-31T06:25:56;5.43;;;2.85;;
38465;SDS011;24244;51.950;5.902;2023-05-31T06:28:23;8.10;;;3.40;;
38465;SDS011;24244;51.950;5.902;2023-05-31T06:30:50;6.57;;;2.85;;
38465;SDS011;24244;51.950;5.902;2023-05-31T06:33:17;5.50;;;2.92;;
38465;SDS011;24244;51.950;5.902;2023-05-31T06:35:43;6.35;;;2.63;;
38465;SDS011;24244;51.950;5.902;2023-05-31T06:38:12;6.70;;;3.15;;
38465;SDS011;24244;51.950;5.902;2023-05-31T06:40:43;6.10;;;2.83;;
38465;SDS011;24244;51.950;5.902;2023-05-31T06:43:11;5.72;;;2.50;;
38465;SDS011;24244;51.950;5.902;2023-05-31T06:45:38;6.93;;;3.10;;
38465;SDS011;24244;51.950;5.902;2023-05-31T06:48:08;5.68;;;2.45;;
38465;SDS011;24244;51.950;5.902;2023-05-31T06:50:35;4.60;;;2.15;;
38465;SDS011;24244;51.950;5.902;2023-05-31T06:53:02;6.05;;;2.90;;
38465;SDS011;24244;51.950;5.902;2023-05-31T06:55:31;5.55;;;2.70;;
38465;SDS011;24244;51.950;5.902;2023-05-31T06:57:58;6.57;;;3.25;;
38465;SDS011;24244;51.950;5.902;2023-05-31T07:00:25;6.80;;;2.78;;
38465;SDS011;24244;51.950;5.902;2023-05-31T07:02:52;7.15;;;2.30;;
38465;SDS011;24244;51.950;5.902;2023-05-31T07:05:19;5.80;;;2.40;;
38465;SDS011;24244;51.950;5.902;2023-05-31T07:07:46;6.13;;;2.72;;
38465;SDS011;24244;51.950;5.902;2023-05-31T07:10:13;5.43;;;2.50;;
38465;SDS011;24244;51.950;5.902;2023-05-31T07:12:41;6.47;;;2.80;;
38465;SDS011;24244;51.950;5.902;2023-05-31T07:15:08;6.47;;;2.40;;
38465;SDS011;24244;51.950;5.902;2023-05-31T07:17:36;4.32;;;2.10;;
38465;SDS011;24244;51.950;5.902;2023-05-31T07:20:03;4.93;;;2.60;;
38465;SDS011;24244;51.950;5.902;2023-05-31T07:22:31;6.15;;;3.08;;
38465;SDS011;24244;51.950;5.902;2023-05-31T07:24:58;7.00;;;2.58;;
38465;SDS011;24244;51.950;5.902;2023-05-31T07:27:25;4.88;;;2.00;;
38465;SDS011;24244;51.950;5.902;2023-05-31T07:29:53;4.53;;;2.50;;
38465;SDS011;24244;51.950;5.902;2023-05-31T07:32:20;6.80;;;2.50;;
38465;SDS011;24244;51.950;5.902;2023-05-31T07:34:47;4.65;;;2.33;;
38465;SDS011;24244;51.950;5.902;2023-05-31T07:37:33;4.60;;;2.33;;
38465;SDS011;24244;51.950;5.902;2023-05-31T07:40:00;4.72;;;2.10;;
38465;SDS011;24244;51.950;5.902;2023-05-31T07:42:27;5.53;;;2.30;;
38465;SDS011;24244;51.950;5.902;2023-05-31T07:44:56;7.03;;;2.78;;
38465;SDS011;24244;51.950;5.902;2023-05-31T07:47:23;6.10;;;2.80;;
38465;SDS011;24244;51.950;5.902;2023-05-31T07:49:50;7.15;;;3.03;;
38465;SDS011;24244;51.950;5.902;2023-05-31T07:52:17;5.30;;;2.10;;
38465;SDS011;24244;51.950;5.902;2023-05-31T07:54:48;6.47;;;2.38;;
38465;SDS011;24244;51.950;5.902;2023-05-31T07:57:15;4.68;;;2.60;;
38465;SDS011;24244;51.950;5.902;2023-05-31T07:59:42;6.45;;;2.35;;
38465;SDS011;24244;51.950;5.902;2023-05-31T08:02:10;5.75;;;2.80;;
38465;SDS011;24244;51.950;5.902;2023-05-31T08:04:37;5.65;;;2.28;;
38465;SDS011;24244;51.950;5.902;2023-05-31T08:07:04;4.95;;;2.58;;
38465;SDS011;24244;51.950;5.902;2023-05-31T08:09:32;7.95;;;2.60;;
38465;SDS011;24244;51.950;5.902;2023-05-31T08:11:59;6.07;;;2.28;;
38465;SDS011;24244;51.950;5.902;2023-05-31T08:14:26;6.03;;;2.17;;
38465;SDS011;24244;51.950;5.902;2023-05-31T08:16:53;6.68;;;2.35;;
38465;SDS011;24244;51.950;5.902;2023-05-31T08:19:21;4.15;;;1.85;;
38465;SDS011;24244;51.950;5.902;2023-05-31T08:21:48;4.13;;;1.88;;
38465;SDS011;24244;51.950;5.902;2023-05-31T08:24:18;6.50;;;2.15;;
38465;SDS011;24244;51.950;5.902;2023-05-31T08:26:45;5.10;;;2.40;;
38465;SDS011;24244;51.950;5.902;2023-05-31T08:29:12;5.07;;;1.98;;
38465;SDS011;24244;51.950;5.902;2023-05-31T08:31:39;4.97;;;1.98;;
38465;SDS011;24244;51.950;5.902;2023-05-31T08:34:06;4.13;;;1.88;;
38465;SDS011;24244;51.950;5.902;2023-05-31T08:36:34;5.32;;;1.75;;
38465;SDS011;24244;51.950;5.902;2023-05-31T08:39:02;5.43;;;2.03;;
38465;SDS011;24244;51.950;5.902;2023-05-31T08:41:29;4.97;;;1.88;;
38465;SDS011;24244;51.950;5.902;2023-05-31T08:44:03;4.80;;;1.77;;
38465;SDS011;24244;51.950;5.902;2023-05-31T08:46:31;4.95;;;1.60;;
38465;SDS011;24244;51.950;5.902;2023-05-31T08:49:00;4.32;;;1.70;;
38465;SDS011;24244;51.950;5.902;2023-05-31T08:51:31;4.85;;;1.70;;
38465;SDS011;24244;51.950;5.902;2023-05-31T08:54:03;5.32;;;1.55;;
38465;SDS011;24244;51.950;5.902;2023-05-31T08:56:32;4.75;;;1.63;;
38465;SDS011;24244;51.950;5.902;2023-05-31T08:59:00;3.95;;;1.77;;
38465;SDS011;24244;51.950;5.902;2023-05-31T09:01:29;5.65;;;1.70;;
38465;SDS011;24244;51.950;5.902;2023-05-31T09:03:56;4.55;;;1.83;;
38465;SDS011;24244;51.950;5.902;2023-05-31T09:06:24;4.63;;;1.60;;
38465;SDS011;24244;51.950;5.902;2023-05-31T09:08:52;5.70;;;1.80;;
38465;SDS011;24244;51.950;5.902;2023-05-31T09:11:19;6.45;;;1.73;;
38465;SDS011;24244;51.950;5.902;2023-05-31T09:13:45;5.03;;;1.80;;
38465;SDS011;24244;51.950;5.902;2023-05-31T09:16:12;5.28;;;1.83;;
38465;SDS011;24244;51.950;5.902;2023-05-31T09:18:39;4.78;;;1.60;;
38465;SDS011;24244;51.950;5.902;2023-05-31T09:21:09;5.43;;;1.58;;
38465;SDS011;24244;51.950;5.902;2023-05-31T09:23:37;5.20;;;1.90;;
38465;SDS011;24244;51.950;5.902;2023-05-31T09:26:06;5.72;;;1.92;;
38465;SDS011;24244;51.950;5.902;2023-05-31T09:28:33;3.78;;;1.40;;
38465;SDS011;24244;51.950;5.902;2023-05-31T09:31:01;4.90;;;1.55;;
38465;SDS011;24244;51.950;5.902;2023-05-31T09:33:40;3.92;;;1.67;;
38465;SDS011;24244;51.950;5.902;2023-05-31T09:36:08;4.22;;;1.10;;
38465;SDS011;24244;51.950;5.902;2023-05-31T09:38:36;5.60;;;1.48;;
38465;SDS011;24244;51.950;5.902;2023-05-31T09:41:14;5.88;;;2.10;;
38465;SDS011;24244;51.950;5.902;2023-05-31T09:43:42;4.65;;;1.73;;
38465;SDS011;24244;51.950;5.902;2023-05-31T09:46:13;5.07;;;1.50;;
38465;SDS011;24244;51.950;5.902;2023-05-31T09:48:40;4.97;;;1.70;;
38465;SDS011;24244;51.950;5.902;2023-05-31T09:51:08;5.00;;;1.67;;
38465;SDS011;24244;51.950;5.902;2023-05-31T09:53:36;3.50;;;1.30;;
38465;SDS011;24244;51.950;5.902;2023-05-31T09:56:07;3.85;;;1.23;;
38465;SDS011;24244;51.950;5.902;2023-05-31T09:58:36;5.10;;;1.65;;
38465;SDS011;24244;51.950;5.902;2023-05-31T10:01:03;3.25;;;1.23;;
38465;SDS011;24244;51.950;5.902;2023-05-31T10:03:31;3.38;;;1.25;;
38465;SDS011;24244;51.950;5.902;2023-05-31T10:05:59;5.68;;;1.42;;
38465;SDS011;24244;51.950;5.902;2023-05-31T10:08:26;2.75;;;1.13;;
38465;SDS011;24244;51.950;5.902;2023-05-31T10:10:53;3.30;;;1.05;;
38465;SDS011;24244;51.950;5.902;2023-05-31T10:13:21;2.70;;;1.10;;
38465;SDS011;24244;51.950;5.902;2023-05-31T10:15:54;3.58;;;0.93;;
38465;SDS011;24244;51.950;5.902;2023-05-31T10:18:22;3.75;;;1.23;;
38465;SDS011;24244;51.950;5.902;2023-05-31T10:20:56;4.00;;;1.30;;
38465;SDS011;24244;51.950;5.902;2023-05-31T10:23:27;3.38;;;1.20;;
38465;SDS011;24244;51.950;5.902;2023-05-31T10:25:58;2.95;;;0.90;;
38465;SDS011;24244;51.950;5.902;2023-05-31T10:28:43;4.28;;;1.00;;
38465;SDS011;24244;51.950;5.902;2023-05-31T10:31:15;3.80;;;1.02;;
38465;SDS011;24244;51.950;5.902;2023-05-31T10:33:43;4.50;;;1.00;;
38465;SDS011;24244;51.950;5.902;2023-05-31T10:36:14;2.67;;;0.90;;
38465;SDS011;24244;51.950;5.902;2023-05-31T10:38:43;3.88;;;1.20;;
38465;SDS011;24244;51.950;5.902;2023-05-31T10:41:16;3.95;;;1.20;;
38465;SDS011;24244;51.950;5.902;2023-05-31T10:43:54;2.70;;;0.90;;
38465;SDS011;24244;51.950;5.902;2023-05-31T10:46:26;5.35;;;1.25;;
38465;SDS011;24244;51.950;5.902;2023-05-31T10:48:58;4.55;;;1.20;;
38465;SDS011;24244;51.950;5.902;2023-05-31T10:54:08;5.10;;;1.60;;
38465;SDS011;24244;51.950;5.902;2023-05-31T10:56:39;2.85;;;1.30;;
38465;SDS011;24244;51.950;5.902;2023-05-31T10:59:08;3.42;;;1.17;;
38465;SDS011;24244;51.950;5.902;2023-05-31T11:01:37;2.72;;;0.80;;
38465;SDS011;24244;51.950;5.902;2023-05-31T11:04:04;4.15;;;1.15;;
38465;SDS011;24244;51.950;5.902;2023-05-31T11:06:47;3.20;;;0.80;;
38465;SDS011;24244;51.950;5.902;2023-05-31T11:09:17;6.47;;;1.17;;
38465;SDS011;24244;51.950;5.902;2023-05-31T11:11:45;2.05;;;0.82;;
38465;SDS011;24244;51.950;5.902;2023-05-31T11:14:23;5.47;;;1.40;;
38465;SDS011;24244;51.950;5.902;2023-05-31T11:19:42;4.13;;;1.00;;
38465;SDS011;24244;51.950;5.902;2023-05-31T11:22:21;3.97;;;1.13;;
38465;SDS011;24244;51.950;5.902;2023-05-31T11:24:51;5.07;;;1.15;;
38465;SDS011;24244;51.950;5.902;2023-05-31T11:27:20;3.47;;;1.00;;
38465;SDS011;24244;51.950;5.902;2023-05-31T11:29:57;4.65;;;1.23;;
38465;SDS011;24244;51.950;5.902;2023-05-31T11:35:30;3.42;;;1.00;;
38465;SDS011;24244;51.950;5.902;2023-05-31T11:40:32;3.92;;;1.25;;
38465;SDS011;24244;51.950;5.902;2023-05-31T11:43:06;4.00;;;1.33;;
38465;SDS011;24244;51.950;5.902;2023-05-31T11:45:37;2.95;;;0.90;;
38465;SDS011;24244;51.950;5.902;2023-05-31T11:48:17;3.63;;;1.13;;
38465;SDS011;24244;51.950;5.902;2023-05-31T11:50:53;3.83;;;1.08;;
38465;SDS011;24244;51.950;5.902;2023-05-31T11:53:22;3.72;;;1.20;;
38465;SDS011;24244;51.950;5.902;2023-05-31T11:55:48;4.13;;;1.13;;
38465;SDS011;24244;51.950;5.902;2023-05-31T11:58:18;2.78;;;1.00;;
38465;SDS011;24244;51.950;5.902;2023-05-31T12:00:46;3.72;;;1.20;;
38465;SDS011;24244;51.950;5.902;2023-05-31T12:03:17;4.55;;;1.42;;
38465;SDS011;24244;51.950;5.902;2023-05-31T12:05:49;3.22;;;1.13;;
38465;SDS011;24244;51.950;5.902;2023-05-31T12:08:17;4.05;;;1.20;;
38465;SDS011;24244;51.950;5.902;2023-05-31T12:10:44;4.40;;;1.20;;
38465;SDS011;24244;51.950;5.902;2023-05-31T12:13:15;3.83;;;1.15;;
38465;SDS011;24244;51.950;5.902;2023-05-31T12:15:51;3.75;;;1.25;;
38465;SDS011;24244;51.950;5.902;2023-05-31T12:18:23;3.90;;;1.15;;
38465;SDS011;24244;51.950;5.902;2023-05-31T12:20:49;3.65;;;1.20;;
38465;SDS011;24244;51.950;5.902;2023-05-31T12:23:16;3.72;;;1.30;;
38465;SDS011;24244;51.950;5.902;2023-05-31T12:25:47;3.60;;;1.35;;
38465;SDS011;24244;51.950;5.902;2023-05-31T12:28:16;4.28;;;1.50;;
38465;SDS011;24244;51.950;5.902;2023-05-31T12:30:44;2.17;;;0.93;;
38465;SDS011;24244;51.950;5.902;2023-05-31T12:33:29;4.53;;;1.20;;
38465;SDS011;24244;51.950;5.902;2023-05-31T12:36:02;2.70;;;1.30;;
38465;SDS011;24244;51.950;5.902;2023-05-31T12:38:29;3.10;;;1.23;;
38465;SDS011;24244;51.950;5.902;2023-05-31T12:40:57;4.05;;;1.55;;
38465;SDS011;24244;51.950;5.902;2023-05-31T12:43:28;3.63;;;1.08;;
38465;SDS011;24244;51.950;5.902;2023-05-31T12:45:57;2.63;;;1.23;;
38465;SDS011;24244;51.950;5.902;2023-05-31T12:48:24;3.10;;;1.10;;
38465;SDS011;24244;51.950;5.902;2023-05-31T12:50:52;2.88;;;1.30;;
38465;SDS011;24244;51.950;5.902;2023-05-31T12:53:21;2.50;;;1.02;;
38465;SDS011;24244;51.950;5.902;2023-05-31T12:55:51;4.03;;;1.45;;
38465;SDS011;24244;51.950;5.902;2023-05-31T12:58:18;3.65;;;1.13;;
38465;SDS011;24244;51.950;5.902;2023-05-31T13:00:45;4.38;;;1.10;;
38465;SDS011;24244;51.950;5.902;2023-05-31T13:03:12;2.38;;;1.00;;
38465;SDS011;24244;51.950;5.902;2023-05-31T13:05:41;2.28;;;0.80;;
38465;SDS011;24244;51.950;5.902;2023-05-31T13:08:09;3.58;;;1.20;;
38465;SDS011;24244;51.950;5.902;2023-05-31T13:10:36;3.88;;;1.20;;
38465;SDS011;24244;51.950;5.902;2023-05-31T13:13:03;2.53;;;1.25;;
38465;SDS011;24244;51.950;5.902;2023-05-31T13:15:31;3.03;;;1.00;;
38465;SDS011;24244;51.950;5.902;2023-05-31T13:17:58;3.47;;;1.30;;
38465;SDS011;24244;51.950;5.902;2023-05-31T13:20:25;3.58;;;1.10;;
38465;SDS011;24244;51.950;5.902;2023-05-31T13:22:52;3.53;;;1.23;;
38465;SDS011;24244;51.950;5.902;2023-05-31T13:25:20;3.58;;;1.00;;
38465;SDS011;24244;51.950;5.902;2023-05-31T13:27:47;4.82;;;1.40;;
38465;SDS011;24244;51.950;5.902;2023-05-31T13:30:14;4.13;;;1.70;;
38465;SDS011;24244;51.950;5.902;2023-05-31T13:32:42;3.38;;;0.98;;
38465;SDS011;24244;51.950;5.902;2023-05-31T13:35:09;2.20;;;1.15;;
38465;SDS011;24244;51.950;5.902;2023-05-31T13:37:36;3.03;;;1.02;;
38465;SDS011;24244;51.950;5.902;2023-05-31T13:40:03;2.88;;;1.00;;
38465;SDS011;24244;51.950;5.902;2023-05-31T13:42:32;2.97;;;1.20;;
38465;SDS011;24244;51.950;5.902;2023-05-31T13:44:59;2.65;;;1.30;;
38465;SDS011;24244;51.950;5.902;2023-05-31T13:47:25;2.13;;;1.02;;
38465;SDS011;24244;51.950;5.902;2023-05-31T13:49:53;3.47;;;1.17;;
38465;SDS011;24244;51.950;5.902;2023-05-31T13:52:19;3.15;;;1.58;;
38465;SDS011;24244;51.950;5.902;2023-05-31T13:54:46;4.00;;;1.20;;
38465;SDS011;24244;51.950;5.902;2023-05-31T13:57:13;2.80;;;0.85;;
38465;SDS011;24244;51.950;5.902;2023-05-31T13:59:41;3.65;;;1.20;;
38465;SDS011;24244;51.950;5.902;2023-05-31T14:02:07;2.70;;;1.10;;
38465;SDS011;24244;51.950;5.902;2023-05-31T14:04:34;2.67;;;1.05;;
38465;SDS011;24244;51.950;5.902;2023-05-31T14:07:01;3.50;;;1.23;;
38465;SDS011;24244;51.950;5.902;2023-05-31T14:09:29;5.20;;;1.02;;
38465;SDS011;24244;51.950;5.902;2023-05-31T14:11:56;3.58;;;1.25;;
38465;SDS011;24244;51.950;5.902;2023-05-31T14:14:23;3.33;;;1.20;;
38465;SDS011;24244;51.950;5.902;2023-05-31T14:16:51;3.78;;;1.42;;
38465;SDS011;24244;51.950;5.902;2023-05-31T14:19:18;3.00;;;1.25;;
38465;SDS011;24244;51.950;5.902;2023-05-31T14:21:45;2.90;;;1.30;;
38465;SDS011;24244;51.950;5.902;2023-05-31T14:24:12;2.85;;;1.40;;
38465;SDS011;24244;51.950;5.902;2023-05-31T14:26:41;3.15;;;1.00;;
38465;SDS011;24244;51.950;5.902;2023-05-31T14:29:10;3.03;;;1.10;;
38465;SDS011;24244;51.950;5.902;2023-05-31T14:31:36;3.33;;;1.20;;
38465;SDS011;24244;51.950;5.902;2023-05-31T14:34:05;3.30;;;1.20;;
38465;SDS011;24244;51.950;5.902;2023-05-31T14:36:32;3.63;;;1.27;;
38465;SDS011;24244;51.950;5.902;2023-05-31T14:39:00;2.17;;;0.98;;
38465;SDS011;24244;51.950;5.902;2023-05-31T14:41:27;2.67;;;1.17;;
38465;SDS011;24244;51.950;5.902;2023-05-31T14:43:55;3.08;;;1.67;;
38465;SDS011;24244;51.950;5.902;2023-05-31T14:46:22;3.58;;;1.27;;
38465;SDS011;24244;51.950;5.902;2023-05-31T14:48:49;4.05;;;1.58;;
38465;SDS011;24244;51.950;5.902;2023-05-31T14:51:17;3.92;;;1.10;;
38465;SDS011;24244;51.950;5.902;2023-05-31T14:53:44;2.85;;;1.02;;
38465;SDS011;24244;51.950;5.902;2023-05-31T14:56:10;3.20;;;1.27;;
38465;SDS011;24244;51.950;5.902;2023-05-31T14:58:40;4.57;;;1.23;;
38465;SDS011;24244;51.950;5.902;2023-05-31T15:01:08;2.42;;;1.20;;
38465;SDS011;24244;51.950;5.902;2023-05-31T15:03:35;2.22;;;1.20;;
38465;SDS011;24244;51.950;5.902;2023-05-31T15:06:02;3.97;;;1.30;;